Portada
METAR-TAF:

METAR-TAF

Aeroports :

Rarotonga, Illes Cook

latitud: 21-12S, longitud: 159-49W, altitud: 7 m

Observació

L'informe es va fer fa 12 minuts, a les 06:30 UTC
Vent 11 kt del Est
Temperatura 24°C
Humitat 78%
Pressió 1015 hPa
Visibilitat 10 km o més

METAR: NCRG 240630Z AUTO 08011KT 9999 SCT023/// BKN034/// 24/20 Q1015

Hora: 20:42 (06:42 UTC)

Pronòstic

L'informe es va fer fa 1 hora i 23 minuts, a les 05:19 UTC
Pronòstic vàlid del 24 a les 06 UTC al 25 a les 06 UTC
Vent 8 kt del Est
Visibilitat 10 km o més
Núvols disperses a una alçada de 2500 ft
Núvols disperses a una alçada de 3500 ft
Evolucionant progressivament
l' 24 a les 22 UTC al 24 a les 24 UTC
Vent 10 kt del Nord/Nord-Est

TAF: NCRG 240519Z 2406/2506 08008KT 9999 SCT025 SCT035 BECMG 2422/2424 02010KT

Observacions i pronòstics meteorològics de més de 4000 aeroports (METAR i TAF).

Les estacions disponibles són els punts grocs i vermells al mapa.

Posi el ratolí al punt desitjat per veure el nom de l'estació.

Feu clic per veure les observacions i els pronòstics meteorològics.

Per canviar el mapa: feu clic els botons verds amb una creu de color negre per apropar; al botó verd amb un guió per allunyar la imatge; o en les fletxes verdes per a mapes adjacents.


METAR-TAF: